createdAt,value
2018-02-22T00:01:14.310Z,14.30
2018-02-22T00:03:43.584Z,13.83
2018-02-22T00:06:12.276Z,12.67
2018-02-22T00:08:42.985Z,13.23
2018-02-22T00:11:11.406Z,13.60
2018-02-22T00:13:39.778Z,11.87
2018-02-22T00:16:08.126Z,13.20
2018-02-22T00:18:36.548Z,14.20
2018-02-22T00:21:04.932Z,12.40
2018-02-22T00:23:34.124Z,13.13
2018-02-22T00:26:04.266Z,12.20
2018-02-22T00:28:33.834Z,13.03
2018-02-22T00:31:02.251Z,13.37
2018-02-22T00:33:30.678Z,12.80
2018-02-22T00:35:59.846Z,13.17
2018-02-22T00:38:28.240Z,12.63
2018-02-22T00:40:56.549Z,13.63
2018-02-22T00:43:25.093Z,16.10
2018-02-22T00:45:54.236Z,14.40
2018-02-22T00:48:23.312Z,11.97
2018-02-22T00:50:53.051Z,14.23
2018-02-22T00:53:21.370Z,12.43
2018-02-22T00:55:50.693Z,12.53
2018-02-22T00:58:19.167Z,13.17
2018-02-22T01:00:48.312Z,13.33
2018-02-22T01:03:18.023Z,14.27
2018-02-22T01:05:46.526Z,14.93
2018-02-22T01:08:17.255Z,14.23
2018-02-22T01:10:46.264Z,13.20
2018-02-22T01:13:14.728Z,14.30
2018-02-22T01:15:44.124Z,14.03
2018-02-22T01:18:13.496Z,13.87
2018-02-22T01:20:43.771Z,14.20
2018-02-22T01:23:12.408Z,12.83
2018-02-22T01:25:45.055Z,13.33
2018-02-22T01:28:17.061Z,14.17
2018-02-22T01:30:46.850Z,13.10
2018-02-22T01:33:15.596Z,13.97
2018-02-22T01:35:44.426Z,12.70
2018-02-22T01:38:14.564Z,15.27
2018-02-22T01:40:43.539Z,15.27
2018-02-22T01:43:13.249Z,12.77
2018-02-22T01:45:42.166Z,12.90
2018-02-22T01:48:13.290Z,14.03
2018-02-22T01:50:46.904Z,13.00
2018-02-22T01:53:16.068Z,11.57
2018-02-22T01:55:45.186Z,12.23
2018-02-22T01:58:14.398Z,13.13
2018-02-22T02:00:42.914Z,13.60
2018-02-22T02:03:11.335Z,13.37
2018-02-22T02:05:40.030Z,13.07
2018-02-22T02:08:09.246Z,12.70
2018-02-22T02:10:37.653Z,14.80
2018-02-22T02:13:06.000Z,13.70
2018-02-22T02:15:35.147Z,13.00
2018-02-22T02:18:03.942Z,13.13
2018-02-22T02:20:32.755Z,13.80
2018-02-22T02:23:01.118Z,12.63
2018-02-22T02:25:29.462Z,11.70
2018-02-22T02:28:03.746Z,13.00
2018-02-22T02:30:33.204Z,14.00
2018-02-22T02:33:01.730Z,13.47
2018-02-22T02:35:30.894Z,13.37
2018-02-22T02:37:59.269Z,11.73
2018-02-22T02:40:27.612Z,13.13
2018-02-22T02:42:56.692Z,12.47
2018-02-22T02:45:25.058Z,14.20
2018-02-22T02:47:53.361Z,13.43
2018-02-22T02:50:21.777Z,12.90
2018-02-22T02:52:52.081Z,14.60
2018-02-22T02:55:20.791Z,12.60
2018-02-22T02:57:51.505Z,13.30
2018-02-22T03:00:19.856Z,14.73
2018-02-22T03:02:48.660Z,12.87
2018-02-22T03:05:17.888Z,11.70
2018-02-22T03:07:48.539Z,13.50
2018-02-22T03:10:17.136Z,14.20
2018-02-22T03:12:45.680Z,13.20
2018-02-22T03:15:14.537Z,13.20
2018-02-22T03:17:43.989Z,12.97
2018-02-22T03:20:15.240Z,12.60
2018-02-22T03:22:43.735Z,13.63
2018-02-22T03:25:12.154Z,13.00
2018-02-22T03:27:40.505Z,13.20
2018-02-22T03:30:08.888Z,14.30
2018-02-22T03:32:38.093Z,13.20
2018-02-22T03:35:07.203Z,12.73
2018-02-22T03:37:36.284Z,13.50
2018-02-22T03:40:07.071Z,14.60
2018-02-22T03:42:36.174Z,13.57
2018-02-22T03:45:06.283Z,14.93
2018-02-22T03:47:35.031Z,13.07
2018-02-22T03:50:03.374Z,12.37
2018-02-22T03:52:32.211Z,12.90
2018-02-22T03:55:00.655Z,14.63
2018-02-22T03:57:29.153Z,13.70
2018-02-22T03:59:57.476Z,13.43
2018-02-22T04:02:27.091Z,13.37
2018-02-22T04:04:56.199Z,12.77
2018-02-22T04:07:25.313Z,13.37
2018-02-22T04:09:54.492Z,13.00
2018-02-22T04:12:22.883Z,15.10
2018-02-22T04:14:51.266Z,12.77
2018-02-22T04:17:20.398Z,15.43
2018-02-22T04:19:48.781Z,14.10
2018-02-22T04:22:18.071Z,13.50
2018-02-22T04:24:47.695Z,11.57
2018-02-22T04:27:16.667Z,13.40
2018-02-22T04:29:45.560Z,14.07
2018-02-22T04:32:14.573Z,13.40
2018-02-22T04:34:43.131Z,13.27
2018-02-22T04:37:11.566Z,12.00
2018-02-22T04:39:39.930Z,12.77
2018-02-22T04:42:08.282Z,12.70
2018-02-22T04:44:36.632Z,12.27
2018-02-22T04:47:05.817Z,12.57
2018-02-22T04:49:34.219Z,12.13
2018-02-22T04:52:02.584Z,12.43
2018-02-22T04:54:31.036Z,12.60
2018-02-22T04:56:59.381Z,12.30
2018-02-22T04:59:29.258Z,13.03
2018-02-22T05:01:58.746Z,12.00
2018-02-22T05:04:27.849Z,12.20
2018-02-22T05:06:56.973Z,13.43
2018-02-22T05:09:26.081Z,13.27
2018-02-22T05:11:55.202Z,16.10
2018-02-22T05:14:23.701Z,14.07
2018-02-22T05:16:52.054Z,15.00
2018-02-22T05:19:20.407Z,14.97
2018-02-22T05:21:48.767Z,13.73
2018-02-22T05:24:17.126Z,12.90
2018-02-22T05:26:46.401Z,13.30
2018-02-22T05:29:14.853Z,14.07
2018-02-22T05:31:43.253Z,12.10
2018-02-22T05:34:12.480Z,22.07
2018-02-22T05:36:42.617Z,13.70
2018-02-22T05:39:11.064Z,14.37
2018-02-22T05:41:40.204Z,15.67
2018-02-22T05:44:09.315Z,13.97
2018-02-22T05:46:37.669Z,11.60
2018-02-22T05:49:06.024Z,11.73
2018-02-22T05:51:34.580Z,12.70
2018-02-22T05:54:02.946Z,12.50
2018-02-22T05:56:31.324Z,13.00
2018-02-22T05:58:59.670Z,14.33
2018-02-22T06:01:28.111Z,12.80
2018-02-22T06:03:56.517Z,13.43
2018-02-22T06:06:24.878Z,12.23
2018-02-22T06:08:54.107Z,12.03
2018-02-22T06:11:22.497Z,43.97
2018-02-22T06:13:50.928Z,13.20
2018-02-22T06:16:20.116Z,14.57
2018-02-22T06:18:48.524Z,12.50
2018-02-22T06:21:17.653Z,15.20
2018-02-22T06:23:46.782Z,11.93
2018-02-22T06:26:15.955Z,12.13
2018-02-22T06:28:45.161Z,16.37
2018-02-22T06:31:14.371Z,12.30
2018-02-22T06:33:42.868Z,12.83
2018-02-22T06:36:11.263Z,12.90
2018-02-22T06:38:39.653Z,11.10
2018-02-22T06:41:08.091Z,12.23
2018-02-22T06:43:36.468Z,11.90
2018-02-22T06:46:04.897Z,14.73
2018-02-22T06:48:33.283Z,13.67
2018-02-22T06:51:01.657Z,15.50
2018-02-22T06:53:30.161Z,15.53
2018-02-22T06:55:59.828Z,16.03
2018-02-22T06:58:28.962Z,14.20
2018-02-22T07:00:57.308Z,13.90
2018-02-22T07:03:25.662Z,62.17
2018-02-22T07:05:54.193Z,15.07
2018-02-22T07:08:23.336Z,15.97
2018-02-22T07:10:52.455Z,17.23
2018-02-22T07:13:21.565Z,15.03
2018-02-22T07:15:50.693Z,15.33
2018-02-22T07:18:19.138Z,16.27
2018-02-22T07:20:47.556Z,16.63
2018-02-22T07:23:16.927Z,17.50
2018-02-22T07:25:44.381Z,16.30
2018-02-22T07:28:12.770Z,17.57
2018-02-22T07:30:41.190Z,16.70
2018-02-22T07:33:09.531Z,17.07
2018-02-22T07:35:37.874Z,19.13
2018-02-22T07:38:06.315Z,19.10
2018-02-22T07:40:34.675Z,20.13
2018-02-22T07:43:03.117Z,17.87
2018-02-22T07:45:31.569Z,18.10
2018-02-22T07:48:00.815Z,18.17
2018-02-22T07:50:29.172Z,15.67
2018-02-22T07:52:58.296Z,18.27
2018-02-22T07:55:27.461Z,17.87
2018-02-22T07:57:55.825Z,17.57
2018-02-22T08:00:24.263Z,17.50
2018-02-22T08:02:52.614Z,16.13
2018-02-22T08:05:21.022Z,15.10
2018-02-22T08:07:49.647Z,15.63
2018-02-22T08:10:18.029Z,15.70
2018-02-22T08:12:46.470Z,15.30
2018-02-22T08:15:14.923Z,16.70
2018-02-22T08:17:43.456Z,13.90
2018-02-22T08:20:11.904Z,17.40
2018-02-22T08:22:41.146Z,16.23
2018-02-22T08:25:10.381Z,15.87
2018-02-22T08:27:38.735Z,17.10
2018-02-22T08:30:07.841Z,17.03
2018-02-22T08:32:36.274Z,14.70
2018-02-22T08:35:04.626Z,14.53
2018-02-22T08:37:33.140Z,16.07
2018-02-22T08:40:02.282Z,14.37
2018-02-22T08:42:30.644Z,14.93
2018-02-22T08:44:59.785Z,17.70
2018-02-22T08:47:28.148Z,15.50
2018-02-22T08:49:56.574Z,17.33
2018-02-22T08:52:24.921Z,14.40
2018-02-22T08:54:54.047Z,15.47
2018-02-22T08:57:23.157Z,13.90
2018-02-22T08:59:51.661Z,15.43
2018-02-22T09:02:20.057Z,15.40
2018-02-22T09:04:48.446Z,13.77
2018-02-22T09:07:16.930Z,14.77
2018-02-22T09:09:46.105Z,14.40
2018-02-22T09:12:14.556Z,16.57
2018-02-22T09:14:43.075Z,14.67
2018-02-22T09:17:12.333Z,15.80
2018-02-22T09:19:40.712Z,15.00
2018-02-22T09:22:09.851Z,13.80
2018-02-22T09:24:38.251Z,13.73
2018-02-22T09:27:06.702Z,14.33
2018-02-22T09:29:35.051Z,13.83
2018-02-22T09:32:03.451Z,12.57
2018-02-22T09:34:31.860Z,12.60
2018-02-22T09:37:00.216Z,11.87
2018-02-22T09:39:28.651Z,12.27
2018-02-22T09:41:57.007Z,13.10
2018-02-22T09:44:25.375Z,11.50
2018-02-22T09:46:53.734Z,13.63
2018-02-22T09:49:22.093Z,11.50
2018-02-22T09:51:50.511Z,12.33
2018-02-22T09:54:18.893Z,12.30
2018-02-22T09:56:47.249Z,12.00
2018-02-22T09:59:16.475Z,11.57
2018-02-22T10:01:44.955Z,11.27
2018-02-22T10:04:13.511Z,10.70
2018-02-22T10:06:42.756Z,10.23
2018-02-22T10:09:11.132Z,10.30
2018-02-22T10:11:39.512Z,8.87
2018-02-22T10:14:08.992Z,10.23
2018-02-22T10:16:37.682Z,9.50
2018-02-22T10:19:06.004Z,10.03
2018-02-22T10:21:34.344Z,7.40
2018-02-22T10:24:02.772Z,8.30
2018-02-22T10:26:31.174Z,8.10
2018-02-22T10:28:59.687Z,8.17
2018-02-22T10:31:28.816Z,7.00
2018-02-22T10:33:57.930Z,7.03
2018-02-22T10:36:26.295Z,8.00
2018-02-22T10:38:54.666Z,7.63
2018-02-22T10:41:23.420Z,8.50
2018-02-22T10:43:51.756Z,7.87
2018-02-22T10:46:20.879Z,8.70
2018-02-22T10:48:49.218Z,8.60
2018-02-22T10:51:17.596Z,9.63
2018-02-22T10:53:46.344Z,9.57
2018-02-22T10:56:14.767Z,9.00
2018-02-22T10:58:43.252Z,8.17
2018-02-22T11:01:18.081Z,8.87
2018-02-22T11:03:46.527Z,9.23
2018-02-22T11:06:14.916Z,9.77
2018-02-22T11:08:43.377Z,9.10
2018-02-22T11:11:12.645Z,9.20
2018-02-22T11:13:40.951Z,9.47
2018-02-22T11:16:10.156Z,9.63
2018-02-22T11:18:38.590Z,9.10
2018-02-22T11:21:07.650Z,8.93
2018-02-22T11:23:35.982Z,10.17
2018-02-22T11:26:04.295Z,8.37
2018-02-22T11:28:33.409Z,9.90
2018-02-22T11:31:01.719Z,8.70
2018-02-22T11:33:30.018Z,9.00
2018-02-22T11:35:58.337Z,10.27
2018-02-22T11:38:26.631Z,7.80
2018-02-22T11:40:54.931Z,8.63
2018-02-22T11:43:23.229Z,7.40
2018-02-22T11:45:52.303Z,8.70
2018-02-22T11:48:20.601Z,9.30
2018-02-22T11:50:48.902Z,9.13
2018-02-22T11:53:17.257Z,9.33
2018-02-22T11:55:45.847Z,10.07
2018-02-22T11:58:14.246Z,9.73
2018-02-22T12:00:43.330Z,9.40
2018-02-22T12:03:11.677Z,8.30
2018-02-22T12:05:39.987Z,9.13
2018-02-22T12:08:09.056Z,7.63
2018-02-22T12:10:37.356Z,8.40
2018-02-22T12:13:05.663Z,9.73
2018-02-22T12:15:34.027Z,8.13
2018-02-22T12:18:02.331Z,7.77
2018-02-22T12:20:30.681Z,8.70
2018-02-22T12:22:58.984Z,7.50
2018-02-22T12:25:27.272Z,7.13
2018-02-22T12:27:55.680Z,7.33
2018-02-22T12:30:24.103Z,7.90
2018-02-22T12:32:52.410Z,6.53
2018-02-22T12:35:21.467Z,7.60
2018-02-22T12:37:49.766Z,7.20
2018-02-22T12:40:18.139Z,7.23
2018-02-22T12:42:46.499Z,6.10
2018-02-22T12:45:15.559Z,6.10
2018-02-22T12:47:43.882Z,7.00
2018-02-22T12:50:13.017Z,6.17
2018-02-22T12:52:41.342Z,7.20
2018-02-22T12:55:09.672Z,7.00
2018-02-22T12:57:37.976Z,7.73
2018-02-22T13:00:07.175Z,7.57
2018-02-22T13:02:36.233Z,7.27
2018-02-22T13:05:04.551Z,6.23
2018-02-22T13:07:32.873Z,6.23
2018-02-22T13:10:01.997Z,6.23
2018-02-22T13:12:30.321Z,7.30
2018-02-22T13:14:58.608Z,6.40
2018-02-22T13:17:27.029Z,4.30
2018-02-22T13:19:55.327Z,6.47
2018-02-22T13:22:23.625Z,6.43
2018-02-22T13:24:51.971Z,7.50
2018-02-22T13:27:20.315Z,6.53
2018-02-22T13:29:48.650Z,6.60
2018-02-22T13:32:16.963Z,7.13
2018-02-22T13:34:45.321Z,6.87
2018-02-22T13:37:25.478Z,8.70
2018-02-22T13:39:53.778Z,8.43
2018-02-22T13:42:22.202Z,8.17
2018-02-22T13:45:02.275Z,9.27
2018-02-22T13:47:30.681Z,8.00
2018-02-22T13:50:10.624Z,6.90
2018-02-22T13:52:39.047Z,7.73
2018-02-22T13:55:08.129Z,7.70
2018-02-22T13:57:37.188Z,6.93
2018-02-22T14:00:05.491Z,7.80
2018-02-22T14:02:33.794Z,7.53
2018-02-22T14:05:02.199Z,6.63
2018-02-22T14:07:30.663Z,7.67
2018-02-22T14:09:58.977Z,5.70
2018-02-22T14:12:27.268Z,5.90
2018-02-22T14:14:55.633Z,6.40
2018-02-22T14:17:23.944Z,6.97
2018-02-22T14:19:52.270Z,6.00
2018-02-22T14:22:20.571Z,7.40
2018-02-22T14:24:49.637Z,5.93
2018-02-22T14:27:18.027Z,5.93
2018-02-22T14:29:46.367Z,5.90
2018-02-22T14:32:14.752Z,5.70
2018-02-22T14:34:43.162Z,6.20
2018-02-22T14:37:11.487Z,6.23
2018-02-22T14:39:39.800Z,6.80
2018-02-22T14:42:08.097Z,6.83
2018-02-22T14:44:36.399Z,5.80
2018-02-22T14:47:04.833Z,6.37
2018-02-22T14:49:33.131Z,5.30
2018-02-22T14:52:01.469Z,5.90
2018-02-22T14:54:29.781Z,6.53
2018-02-22T14:56:58.194Z,5.50
2018-02-22T14:59:26.497Z,5.30
2018-02-22T15:01:54.809Z,5.60
2018-02-22T15:04:23.110Z,4.53
2018-02-22T15:06:52.406Z,4.17
2018-02-22T15:09:20.726Z,5.27
2018-02-22T15:11:49.030Z,4.93
2018-02-22T15:14:17.368Z,4.70
2018-02-22T15:16:46.589Z,6.60
2018-02-22T15:19:14.990Z,6.63
2018-02-22T15:21:43.329Z,4.97
2018-02-22T15:24:11.807Z,5.77
2018-02-22T15:26:40.193Z,6.20
2018-02-22T15:29:08.535Z,5.17
2018-02-22T15:31:36.864Z,5.60
2018-02-22T15:34:05.960Z,5.70
2018-02-22T15:36:35.087Z,6.97
2018-02-22T15:39:03.488Z,6.33
2018-02-22T15:41:31.783Z,6.97
2018-02-22T15:44:00.939Z,5.30
2018-02-22T15:46:29.245Z,5.90
2018-02-22T15:48:57.541Z,6.67
2018-02-22T15:51:25.853Z,6.30
2018-02-22T15:53:54.161Z,5.90
2018-02-22T15:56:23.281Z,5.47
2018-02-22T15:58:52.343Z,4.80
2018-02-22T16:01:20.654Z,5.83
2018-02-22T16:03:48.986Z,4.73
2018-02-22T16:06:17.398Z,4.90
2018-02-22T16:08:45.926Z,5.73
2018-02-22T16:11:14.683Z,4.67
2018-02-22T16:13:43.296Z,4.23
2018-02-22T16:16:12.118Z,4.17
2018-02-22T16:18:40.459Z,3.90
2018-02-22T16:21:08.953Z,4.87
2018-02-22T16:23:37.248Z,4.87
2018-02-22T16:26:05.630Z,4.63
2018-02-22T16:28:33.963Z,5.10
2018-02-22T16:31:02.352Z,4.07
2018-02-22T16:33:30.680Z,3.77
2018-02-22T16:35:59.782Z,5.30
2018-02-22T16:38:28.158Z,3.90
2018-02-22T16:40:56.474Z,4.70
2018-02-22T16:43:24.763Z,5.07
2018-02-22T16:45:53.830Z,4.27
2018-02-22T16:48:22.132Z,5.20
2018-02-22T16:50:50.475Z,4.40
2018-02-22T16:53:18.777Z,4.63
2018-02-22T16:55:47.274Z,5.13
2018-02-22T16:58:15.619Z,4.53
2018-02-22T17:00:44.039Z,3.90
2018-02-22T17:03:12.446Z,4.93
2018-02-22T17:05:40.799Z,5.60
2018-02-22T17:08:09.148Z,5.20
2018-02-22T17:10:37.499Z,5.07
2018-02-22T17:13:06.686Z,5.70
2018-02-22T17:15:35.369Z,5.53
2018-02-22T17:18:04.948Z,5.73
2018-02-22T17:20:33.285Z,4.90
2018-02-22T17:23:01.609Z,5.67
2018-02-22T17:25:30.214Z,5.70
2018-02-22T17:28:04.387Z,5.30
2018-02-22T17:30:38.430Z,5.43
2018-02-22T17:33:06.756Z,6.27
2018-02-22T17:35:41.719Z,7.00
2018-02-22T17:38:23.006Z,7.00
2018-02-22T17:40:57.073Z,5.47
2018-02-22T17:43:25.479Z,7.10
2018-02-22T17:45:53.847Z,6.20
2018-02-22T17:48:22.230Z,8.07
2018-02-22T17:50:50.558Z,6.90
2018-02-22T17:53:18.993Z,7.40
2018-02-22T17:55:48.112Z,7.50
2018-02-22T17:58:16.471Z,8.20
2018-02-22T18:00:45.724Z,8.27
2018-02-22T18:03:14.114Z,8.67
2018-02-22T18:05:42.508Z,7.40
2018-02-22T18:08:10.875Z,8.30
2018-02-22T18:10:39.206Z,7.77
2018-02-22T18:13:07.593Z,7.70
2018-02-22T18:15:36.001Z,8.13
2018-02-22T18:18:04.378Z,8.40
2018-02-22T18:20:32.721Z,7.10
2018-02-22T18:23:01.375Z,8.50
2018-02-22T18:25:30.225Z,8.97
2018-02-22T18:27:59.358Z,8.10
2018-02-22T18:30:27.703Z,7.07
2018-02-22T18:32:56.039Z,8.50
2018-02-22T18:35:24.428Z,7.50
2018-02-22T18:37:58.461Z,8.17
2018-02-22T18:40:32.608Z,8.77
2018-02-22T18:43:01.111Z,8.33
2018-02-22T18:45:29.471Z,8.97
2018-02-22T18:47:57.795Z,6.67
2018-02-22T18:50:26.114Z,7.43
2018-02-22T18:52:54.450Z,7.67
2018-02-22T18:55:22.860Z,6.60
2018-02-22T18:57:51.190Z,6.40
2018-02-22T19:00:20.371Z,6.63
2018-02-22T19:02:48.709Z,6.77
2018-02-22T19:05:17.075Z,8.57
2018-02-22T19:07:45.509Z,7.77
2018-02-22T19:10:14.645Z,6.93
2018-02-22T19:12:43.088Z,6.90
2018-02-22T19:15:12.291Z,8.17
2018-02-22T19:17:41.478Z,7.00
2018-02-22T19:20:09.879Z,8.17
2018-02-22T19:22:38.233Z,7.23
2018-02-22T19:25:06.542Z,8.27
2018-02-22T19:27:35.690Z,7.30
2018-02-22T19:30:04.802Z,7.10
2018-02-22T19:32:33.981Z,6.87
2018-02-22T19:35:02.348Z,7.33
2018-02-22T19:37:30.686Z,6.87
2018-02-22T19:39:59.789Z,6.23
2018-02-22T19:42:28.131Z,6.10
2018-02-22T19:44:56.817Z,7.30
2018-02-22T19:47:25.167Z,7.00
2018-02-22T19:49:53.506Z,6.10
2018-02-22T19:52:21.927Z,6.27
2018-02-22T19:54:50.262Z,5.80
2018-02-22T19:57:20.344Z,6.50
2018-02-22T19:59:48.829Z,6.23
2018-02-22T20:02:17.275Z,5.17
2018-02-22T20:04:46.477Z,6.53
2018-02-22T20:07:14.935Z,6.80
2018-02-22T20:09:43.481Z,6.67
2018-02-22T20:12:12.863Z,6.10
2018-02-22T20:14:42.697Z,6.80
2018-02-22T20:17:11.021Z,6.10
2018-02-22T20:19:39.384Z,6.03
2018-02-22T20:22:07.747Z,5.90
2018-02-22T20:24:36.095Z,6.07
2018-02-22T20:27:04.499Z,6.77
2018-02-22T20:29:32.851Z,5.80
2018-02-22T20:32:01.281Z,6.67
2018-02-22T20:34:30.543Z,6.27
2018-02-22T20:36:58.871Z,6.60
2018-02-22T20:39:27.252Z,6.30
2018-02-22T20:41:55.818Z,4.60
2018-02-22T20:44:24.162Z,6.57
2018-02-22T20:46:52.498Z,6.30
2018-02-22T20:49:20.917Z,6.00
2018-02-22T20:51:53.021Z,6.20
2018-02-22T20:54:21.474Z,5.50
2018-02-22T20:56:49.772Z,5.97
2018-02-22T20:59:18.080Z,5.67
2018-02-22T21:01:47.149Z,5.50
2018-02-22T21:04:18.469Z,5.90
2018-02-22T21:06:46.852Z,5.87
2018-02-22T21:09:15.160Z,6.90
2018-02-22T21:11:43.613Z,8.37
2018-02-22T21:14:12.020Z,7.00
2018-02-22T21:16:40.363Z,5.73
2018-02-22T21:19:09.003Z,5.87
2018-02-22T21:21:38.066Z,5.83
2018-02-22T21:24:06.368Z,5.63
2018-02-22T21:26:34.670Z,6.63
2018-02-22T21:29:03.049Z,6.10
2018-02-22T21:31:31.422Z,7.00
2018-02-22T21:33:59.725Z,6.67
2018-02-22T21:36:28.321Z,6.63
2018-02-22T21:38:56.724Z,6.97
2018-02-22T21:41:25.052Z,6.50
2018-02-22T21:43:55.058Z,6.27
2018-02-22T21:46:23.390Z,6.53
2018-02-22T21:48:51.713Z,6.87
2018-02-22T21:51:20.103Z,6.80
2018-02-22T21:53:48.513Z,7.17
2018-02-22T21:56:17.112Z,6.93
2018-02-22T21:58:45.504Z,6.03
2018-02-22T22:01:13.931Z,7.03
2018-02-22T22:03:43.560Z,6.80
2018-02-22T22:06:12.027Z,7.80
2018-02-22T22:08:40.402Z,7.00
2018-02-22T22:11:08.735Z,7.10
2018-02-22T22:13:37.131Z,6.93
2018-02-22T22:16:05.526Z,6.83
2018-02-22T22:18:33.842Z,6.27
2018-02-22T22:21:02.229Z,6.20
2018-02-22T22:23:30.597Z,7.40
2018-02-22T22:25:58.938Z,6.80
2018-02-22T22:28:27.452Z,7.23
2018-02-22T22:30:55.775Z,6.47
2018-02-22T22:33:24.108Z,7.47
2018-02-22T22:35:52.439Z,6.40
2018-02-22T22:38:21.544Z,8.40
2018-02-22T22:40:50.246Z,7.10
2018-02-22T22:43:19.383Z,7.07
2018-02-22T22:45:47.704Z,6.60
2018-02-22T22:48:16.065Z,6.70
2018-02-22T22:50:44.446Z,7.53
2018-02-22T22:53:13.221Z,6.70
2018-02-22T22:55:41.576Z,7.40
2018-02-22T22:58:09.920Z,6.87
2018-02-22T23:00:38.274Z,6.73
2018-02-22T23:03:06.602Z,8.27
2018-02-22T23:05:35.758Z,6.93
2018-02-22T23:08:04.086Z,7.10
2018-02-22T23:10:32.456Z,7.77
2018-02-22T23:13:01.582Z,8.10
2018-02-22T23:15:29.926Z,7.70
2018-02-22T23:17:58.393Z,7.33
2018-02-22T23:20:27.626Z,8.43
2018-02-22T23:22:56.036Z,7.63
2018-02-22T23:25:24.439Z,7.07
2018-02-22T23:27:52.763Z,8.70
2018-02-22T23:30:22.223Z,7.53
2018-02-22T23:32:50.681Z,7.90
2018-02-22T23:35:19.737Z,6.90
2018-02-22T23:37:48.043Z,8.03
2018-02-22T23:43:16.930Z,8.13
2018-02-22T23:45:46.141Z,8.10
2018-02-22T23:48:15.242Z,8.13
2018-02-22T23:50:43.716Z,8.10
2018-02-22T23:53:13.025Z,9.03
2018-02-22T23:55:42.957Z,7.53
2018-02-22T23:58:12.114Z,9.57
